createdAt,value
2018-08-08T00:01:20.420Z,99.90
2018-08-08T00:05:24.733Z,99.90
2018-08-08T00:09:29.136Z,99.90
2018-08-08T00:13:33.365Z,99.90
2018-08-08T00:17:37.589Z,99.90
2018-08-08T00:21:41.914Z,99.90
2018-08-08T00:25:46.229Z,99.90
2018-08-08T00:29:50.461Z,99.90
2018-08-08T00:33:55.050Z,99.90
2018-08-08T00:37:59.734Z,99.90
2018-08-08T00:42:04.197Z,99.90
2018-08-08T00:46:08.422Z,99.90
2018-08-08T00:50:14.120Z,99.90
2018-08-08T00:54:18.458Z,99.90
2018-08-08T00:58:22.722Z,99.90
2018-08-08T01:02:27.168Z,99.90
2018-08-08T01:06:31.407Z,99.90
2018-08-08T01:10:35.720Z,99.90
2018-08-08T01:14:40.322Z,99.90
2018-08-08T01:18:44.611Z,99.90
2018-08-08T01:22:48.924Z,99.90
2018-08-08T01:26:53.384Z,99.90
2018-08-08T01:30:58.052Z,99.90
2018-08-08T01:35:02.397Z,99.90
2018-08-08T01:39:08.929Z,99.90
2018-08-08T01:43:13.203Z,99.90
2018-08-08T01:47:17.614Z,99.90
2018-08-08T01:51:21.864Z,99.90
2018-08-08T01:55:26.163Z,99.90
2018-08-08T01:59:30.535Z,99.90
2018-08-08T02:03:34.790Z,99.90
2018-08-08T02:07:39.716Z,99.90
2018-08-08T02:11:44.256Z,99.90
2018-08-08T02:15:48.511Z,99.90
2018-08-08T02:19:52.965Z,99.90
2018-08-08T02:23:57.287Z,99.90
2018-08-08T02:28:01.609Z,99.90
2018-08-08T02:32:06.472Z,99.90
2018-08-08T02:36:10.690Z,99.90
2018-08-08T02:40:15.015Z,99.90
2018-08-08T02:44:19.412Z,99.90
2018-08-08T02:48:23.880Z,99.90
2018-08-08T02:52:28.121Z,99.90
2018-08-08T02:56:32.588Z,99.90
2018-08-08T03:00:36.832Z,99.90
2018-08-08T03:04:41.215Z,99.90
2018-08-08T03:08:45.501Z,99.90
2018-08-08T03:12:49.736Z,99.90
2018-08-08T03:16:54.149Z,99.90
2018-08-08T03:20:58.840Z,99.90
2018-08-08T03:25:03.129Z,99.90
2018-08-08T03:29:07.408Z,99.90
2018-08-08T03:33:11.665Z,99.90
2018-08-08T03:37:16.281Z,99.90
2018-08-08T03:41:20.533Z,99.90
2018-08-08T03:45:24.851Z,99.90
2018-08-08T03:49:29.516Z,99.90
2018-08-08T03:53:33.824Z,99.90
2018-08-08T03:57:38.127Z,99.90
2018-08-08T04:01:42.630Z,99.90
2018-08-08T04:05:46.857Z,99.90
2018-08-08T04:09:51.238Z,99.90
2018-08-08T04:13:55.750Z,99.90
2018-08-08T04:18:00.451Z,99.90
2018-08-08T04:22:05.302Z,99.90
2018-08-08T04:26:09.625Z,99.90
2018-08-08T04:30:16.057Z,99.90
2018-08-08T04:34:20.535Z,99.90
2018-08-08T04:38:24.788Z,99.90
2018-08-08T04:42:31.197Z,99.90
2018-08-08T04:46:35.522Z,99.90
2018-08-08T04:50:39.777Z,99.90
2018-08-08T04:54:44.305Z,99.90
2018-08-08T04:58:48.716Z,99.90
2018-08-08T05:02:53.081Z,99.90
2018-08-08T05:06:57.807Z,99.90
2018-08-08T05:11:02.389Z,99.90
2018-08-08T05:15:07.943Z,99.90
2018-08-08T05:19:12.354Z,99.90
2018-08-08T05:23:17.540Z,99.90
2018-08-08T05:27:21.921Z,99.90
2018-08-08T05:31:26.199Z,99.90
2018-08-08T05:35:30.556Z,99.90
2018-08-08T05:39:34.969Z,99.90
2018-08-08T05:43:39.251Z,99.90
2018-08-08T05:47:45.323Z,99.90
2018-08-08T05:51:49.612Z,99.90
2018-08-08T05:55:53.888Z,99.90
2018-08-08T05:59:58.716Z,99.90
2018-08-08T06:04:03.048Z,99.90
2018-08-08T06:08:07.600Z,99.90
2018-08-08T06:12:11.949Z,99.90
2018-08-08T06:16:16.194Z,99.90
2018-08-08T06:20:49.088Z,99.90
2018-08-08T06:24:54.836Z,99.90
2018-08-08T06:28:59.482Z,99.90
2018-08-08T06:33:04.115Z,99.90
2018-08-08T06:37:08.444Z,99.90
2018-08-08T06:41:12.868Z,99.90
2018-08-08T06:45:19.608Z,99.90
2018-08-08T06:49:23.813Z,99.90
2018-08-08T06:53:28.169Z,99.90
2018-08-08T06:57:32.489Z,99.90
2018-08-08T07:01:36.795Z,99.90
2018-08-08T07:05:41.093Z,99.90
2018-08-08T07:09:45.298Z,99.90
2018-08-08T07:13:49.882Z,99.90
2018-08-08T07:17:54.184Z,99.90
2018-08-08T07:21:58.556Z,99.90
2018-08-08T07:26:02.856Z,99.90
2018-08-08T07:35:16.957Z,99.90
2018-08-08T07:39:21.234Z,99.90
2018-08-08T07:43:25.662Z,99.90
2018-08-08T07:47:30.301Z,96.00
2018-08-08T07:51:34.711Z,95.00
2018-08-08T07:55:38.984Z,93.00
2018-08-08T07:59:43.286Z,91.70
2018-08-08T08:03:47.671Z,92.20
2018-08-08T08:07:52.296Z,91.90
2018-08-08T08:11:56.581Z,90.10
2018-08-08T08:16:00.885Z,90.10
2018-08-08T08:20:06.480Z,87.20
2018-08-08T08:24:10.782Z,83.80
2018-08-08T08:28:15.042Z,83.70
2018-08-08T08:32:19.325Z,83.90
2018-08-08T08:36:23.555Z,83.00
2018-08-08T08:40:27.932Z,80.20
2018-08-08T08:44:32.252Z,76.10
2018-08-08T08:48:37.671Z,73.80
2018-08-08T08:52:41.871Z,70.80
2018-08-08T08:56:46.130Z,74.20
2018-08-08T09:00:50.333Z,67.50
2018-08-08T09:04:54.536Z,66.20
2018-08-08T09:08:58.812Z,59.10
2018-08-08T09:13:03.008Z,59.80
2018-08-08T09:17:07.518Z,64.10
2018-08-08T09:21:11.721Z,57.40
2018-08-08T09:25:16.025Z,56.60
2018-08-08T09:29:20.216Z,54.50
2018-08-08T09:33:29.507Z,55.00
2018-08-08T09:37:33.781Z,56.90
2018-08-08T09:41:38.246Z,57.20
2018-08-08T09:45:42.457Z,55.80
2018-08-08T09:49:46.745Z,55.90
2018-08-08T09:53:51.040Z,52.50
2018-08-08T09:57:55.211Z,53.50
2018-08-08T10:02:04.548Z,54.00
2018-08-08T10:06:08.937Z,55.20
2018-08-08T10:10:13.169Z,48.70
2018-08-08T10:14:17.483Z,47.80
2018-08-08T10:18:21.703Z,49.80
2018-08-08T10:22:25.896Z,47.20
2018-08-08T10:26:30.150Z,49.30
2018-08-08T10:30:34.397Z,48.30
2018-08-08T10:34:38.583Z,46.60
2018-08-08T10:38:42.910Z,47.50
2018-08-08T10:42:47.129Z,46.70
2018-08-08T10:46:51.360Z,48.00
2018-08-08T10:50:55.656Z,48.50
2018-08-08T10:54:59.844Z,43.70
2018-08-08T10:59:04.230Z,44.60
2018-08-08T11:03:08.692Z,45.80
2018-08-08T11:07:14.093Z,46.00
2018-08-08T11:11:18.312Z,50.30
2018-08-08T11:15:22.651Z,46.80
2018-08-08T11:19:26.852Z,44.60
2018-08-08T11:23:31.073Z,41.90
2018-08-08T11:27:35.359Z,45.80
2018-08-08T11:31:39.608Z,43.20
2018-08-08T11:35:43.913Z,42.20
2018-08-08T11:39:48.298Z,43.50
2018-08-08T11:43:52.600Z,39.50
2018-08-08T11:47:56.820Z,39.30
2018-08-08T11:52:01.102Z,40.70
2018-08-08T11:56:05.353Z,42.60
2018-08-08T12:00:10.754Z,39.00
2018-08-08T12:04:14.987Z,36.30
2018-08-08T12:08:19.156Z,37.40
2018-08-08T12:12:23.477Z,34.20
2018-08-08T12:16:28.053Z,33.60
2018-08-08T12:20:32.254Z,34.80
2018-08-08T12:24:36.532Z,31.80
2018-08-08T12:28:40.828Z,29.30
2018-08-08T12:32:45.108Z,32.40
2018-08-08T12:36:49.640Z,31.50
2018-08-08T12:40:55.071Z,32.00
2018-08-08T12:44:59.281Z,31.10
2018-08-08T12:49:03.508Z,30.80
2018-08-08T12:53:07.720Z,32.00
2018-08-08T12:57:12.097Z,30.40
2018-08-08T13:01:16.281Z,29.50
2018-08-08T13:05:21.624Z,30.20
2018-08-08T13:09:25.857Z,32.80
2018-08-08T13:13:30.109Z,32.80
2018-08-08T13:17:34.359Z,31.80
2018-08-08T13:21:38.678Z,30.70
2018-08-08T13:25:42.921Z,30.10
2018-08-08T13:29:48.267Z,29.90
2018-08-08T13:33:52.542Z,29.80
2018-08-08T13:37:56.788Z,32.10
2018-08-08T13:42:01.020Z,31.70
2018-08-08T13:46:05.405Z,29.50
2018-08-08T13:50:09.609Z,26.50
2018-08-08T13:54:15.358Z,27.20
2018-08-08T13:58:22.574Z,27.90
2018-08-08T14:02:29.474Z,28.30
2018-08-08T14:06:34.126Z,29.00
2018-08-08T14:10:38.470Z,28.90
2018-08-08T14:14:42.711Z,28.90
2018-08-08T14:18:46.986Z,29.40
2018-08-08T14:22:51.298Z,30.20
2018-08-08T14:26:55.695Z,31.90
2018-08-08T14:30:59.874Z,30.50
2018-08-08T14:35:04.307Z,29.40
2018-08-08T14:39:10.669Z,29.60
2018-08-08T14:43:15.046Z,30.70
2018-08-08T14:47:19.393Z,29.00
2018-08-08T14:51:23.644Z,29.80
2018-08-08T14:55:27.845Z,30.00
2018-08-08T14:59:32.083Z,29.50
2018-08-08T15:03:36.553Z,29.90
2018-08-08T15:07:40.782Z,30.30
2018-08-08T15:11:45.130Z,33.30
2018-08-08T15:15:49.346Z,34.60
2018-08-08T15:19:53.699Z,38.00
2018-08-08T15:23:57.928Z,43.20
2018-08-08T15:28:02.204Z,44.00
2018-08-08T15:32:06.782Z,44.80
2018-08-08T15:36:11.076Z,46.70
2018-08-08T15:40:15.627Z,46.70
2018-08-08T15:44:19.897Z,48.60
2018-08-08T15:48:24.116Z,49.40
2018-08-08T15:52:28.371Z,49.00
2018-08-08T15:56:32.626Z,50.90
2018-08-08T16:00:36.933Z,52.50
2018-08-08T16:04:41.181Z,49.50
2018-08-08T16:08:45.404Z,54.00
2018-08-08T16:12:49.704Z,55.20
2018-08-08T16:16:54.065Z,58.60
2018-08-08T16:20:58.333Z,61.50
2018-08-08T16:25:03.446Z,62.40
2018-08-08T16:29:07.831Z,62.70
2018-08-08T16:33:12.097Z,63.80
2018-08-08T16:37:16.479Z,63.30
2018-08-08T16:41:20.672Z,66.90
2018-08-08T16:45:24.984Z,67.60
2018-08-08T16:49:29.209Z,68.40
2018-08-08T16:53:33.488Z,68.90
2018-08-08T16:57:37.754Z,70.20
2018-08-08T17:01:42.624Z,70.30
2018-08-08T17:05:47.102Z,69.40
2018-08-08T17:09:51.549Z,69.70
2018-08-08T17:13:55.788Z,72.70
2018-08-08T17:18:00.118Z,74.00
2018-08-08T17:22:04.416Z,75.50
2018-08-08T17:26:08.999Z,76.40
2018-08-08T17:30:13.717Z,78.90
2018-08-08T17:34:18.079Z,79.60
2018-08-08T17:38:22.532Z,81.50
2018-08-08T17:42:26.762Z,81.40
2018-08-08T17:46:31.188Z,81.70
2018-08-08T17:50:35.593Z,82.50
2018-08-08T17:54:39.840Z,84.70
2018-08-08T17:58:44.100Z,87.20
2018-08-08T18:02:48.661Z,87.10
2018-08-08T18:06:52.869Z,86.20
2018-08-08T18:10:57.064Z,86.70
2018-08-08T18:15:01.544Z,87.00
2018-08-08T18:19:05.821Z,88.00
2018-08-08T18:23:10.199Z,90.30
2018-08-08T18:27:14.445Z,91.50
2018-08-08T18:31:18.677Z,91.80
2018-08-08T18:35:22.964Z,91.90
2018-08-08T18:39:27.419Z,92.60
2018-08-08T18:43:32.040Z,92.90
2018-08-08T18:47:36.262Z,93.40
2018-08-08T18:51:40.536Z,93.00
2018-08-08T18:55:45.419Z,92.80
2018-08-08T18:59:50.392Z,93.30
2018-08-08T19:03:55.710Z,93.30
2018-08-08T19:08:00.335Z,93.70
2018-08-08T19:12:06.076Z,94.60
2018-08-08T19:16:11.128Z,94.90
2018-08-08T19:20:15.725Z,78.50
2018-08-08T19:24:20.051Z,67.80
2018-08-08T19:28:27.403Z,60.60
2018-08-08T19:32:32.656Z,59.20
2018-08-08T19:36:38.095Z,57.20
2018-08-08T19:40:43.009Z,59.00
2018-08-08T19:44:47.721Z,60.00
2018-08-08T19:48:52.069Z,62.40
2018-08-08T19:52:56.399Z,63.50
2018-08-08T19:57:00.687Z,62.80
2018-08-08T20:01:05.020Z,62.20
2018-08-08T20:05:09.756Z,60.80
2018-08-08T20:09:14.130Z,61.70
2018-08-08T20:13:18.924Z,63.30
2018-08-08T20:17:23.399Z,63.70
2018-08-08T20:21:27.847Z,63.00
2018-08-08T20:25:33.108Z,65.10
2018-08-08T20:29:37.525Z,65.90
2018-08-08T20:33:42.118Z,67.30
2018-08-08T20:37:46.517Z,69.30
2018-08-08T20:41:51.000Z,71.50
2018-08-08T20:45:55.555Z,72.50
2018-08-08T20:49:59.990Z,74.00
2018-08-08T20:54:04.675Z,75.60
2018-08-08T20:58:08.997Z,76.90
2018-08-08T21:02:13.442Z,77.30
2018-08-08T21:06:17.628Z,78.70
2018-08-08T21:10:21.909Z,80.00
2018-08-08T21:14:26.354Z,79.60
2018-08-08T21:18:30.586Z,80.40
2018-08-08T21:22:34.832Z,80.30
2018-08-08T21:26:39.177Z,80.90
2018-08-08T21:30:43.447Z,82.20
2018-08-08T21:34:47.894Z,82.10
2018-08-08T21:38:52.250Z,82.70
2018-08-08T21:42:56.548Z,83.40
2018-08-08T21:47:00.785Z,83.50
2018-08-08T21:51:05.144Z,84.60
2018-08-08T21:55:20.209Z,86.10
2018-08-08T21:59:35.405Z,86.90
2018-08-08T22:03:50.585Z,88.60
2018-08-08T22:08:06.187Z,89.50
2018-08-08T22:12:21.469Z,89.90
2018-08-08T22:18:40.295Z,90.30
2018-08-08T22:22:44.638Z,90.90
2018-08-08T22:26:48.867Z,90.80
2018-08-08T22:30:53.341Z,90.70
2018-08-08T22:34:57.527Z,91.00
2018-08-08T22:39:01.848Z,90.70
2018-08-08T22:43:06.100Z,91.20
2018-08-08T22:47:10.360Z,91.40
2018-08-08T22:51:14.577Z,91.70
2018-08-08T22:55:19.014Z,91.90
2018-08-08T22:59:23.204Z,91.90
2018-08-08T23:03:27.507Z,92.00
2018-08-08T23:07:31.716Z,92.00
2018-08-08T23:11:35.915Z,92.40
2018-08-08T23:15:40.163Z,92.90
2018-08-08T23:19:44.358Z,93.20
2018-08-08T23:23:48.634Z,93.20
2018-08-08T23:27:52.857Z,94.00
2018-08-08T23:31:57.252Z,94.90
2018-08-08T23:36:01.417Z,95.70
2018-08-08T23:40:05.916Z,96.30
2018-08-08T23:44:10.429Z,96.80
2018-08-08T23:48:14.683Z,97.30
2018-08-08T23:52:19.248Z,96.90
2018-08-08T23:56:23.460Z,96.90
